createdAt,value
2018-11-01T00:01:18.816Z,22.10
2018-11-01T00:03:47.242Z,22.10
2018-11-01T00:06:15.920Z,22.00
2018-11-01T00:08:44.675Z,22.00
2018-11-01T00:11:13.162Z,21.90
2018-11-01T00:13:41.900Z,21.90
2018-11-01T00:16:10.381Z,21.90
2018-11-01T00:18:38.880Z,21.90
2018-11-01T00:21:08.274Z,21.90
2018-11-01T00:23:37.483Z,21.80
2018-11-01T00:26:06.534Z,21.80
2018-11-01T00:28:36.253Z,21.70
2018-11-01T00:31:04.876Z,21.70
2018-11-01T00:33:33.349Z,21.70
2018-11-01T00:36:02.046Z,21.70
2018-11-01T00:38:30.791Z,21.70
2018-11-01T00:40:59.716Z,21.70
2018-11-01T00:43:28.339Z,21.70
2018-11-01T00:45:56.908Z,21.60
2018-11-01T00:48:25.409Z,21.60
2018-11-01T00:50:54.000Z,21.60
2018-11-01T00:53:22.583Z,21.60
2018-11-01T00:55:51.318Z,21.60
2018-11-01T00:58:19.798Z,21.60
2018-11-01T01:00:48.337Z,21.50
2018-11-01T01:03:17.153Z,21.50
2018-11-01T01:05:47.038Z,21.50
2018-11-01T01:08:17.257Z,21.50
2018-11-01T01:10:45.989Z,21.40
2018-11-01T01:13:14.530Z,21.40
2018-11-01T01:15:43.095Z,21.40
2018-11-01T01:18:11.540Z,21.40
2018-11-01T01:20:39.969Z,21.30
2018-11-01T01:23:09.529Z,21.30
2018-11-01T01:25:38.264Z,21.30
2018-11-01T01:28:07.000Z,21.30
2018-11-01T01:30:35.757Z,21.20
2018-11-01T01:33:04.516Z,21.20
2018-11-01T01:35:33.069Z,21.20
2018-11-01T01:38:01.685Z,21.20
2018-11-01T01:40:30.398Z,21.20
2018-11-01T01:42:59.060Z,21.20
2018-11-01T01:45:27.682Z,21.20
2018-11-01T01:47:56.361Z,21.20
2018-11-01T01:50:25.005Z,21.10
2018-11-01T01:52:53.599Z,21.20
2018-11-01T01:55:22.260Z,21.10
2018-11-01T01:57:51.020Z,21.10
2018-11-01T02:00:20.769Z,21.10
2018-11-01T02:02:51.815Z,21.00
2018-11-01T02:05:20.714Z,21.00
2018-11-01T02:07:49.419Z,21.00
2018-11-01T02:10:18.529Z,21.00
2018-11-01T02:12:47.068Z,21.00
2018-11-01T02:15:17.788Z,21.00
2018-11-01T02:17:46.360Z,21.00
2018-11-01T02:20:16.345Z,20.90
2018-11-01T02:22:45.346Z,20.90
2018-11-01T02:25:14.303Z,20.90
2018-11-01T02:27:48.112Z,20.90
2018-11-01T02:30:17.408Z,20.90
2018-11-01T02:32:46.317Z,20.90
2018-11-01T02:35:15.997Z,20.90
2018-11-01T02:37:44.994Z,20.80
2018-11-01T02:40:14.184Z,20.90
2018-11-01T02:42:43.224Z,20.80
2018-11-01T02:45:12.675Z,20.80
2018-11-01T02:47:41.472Z,20.80
2018-11-01T02:50:11.040Z,20.80
2018-11-01T02:52:39.778Z,20.80
2018-11-01T02:55:08.909Z,20.80
2018-11-01T02:57:37.429Z,20.80
2018-11-01T03:00:08.157Z,20.80
2018-11-01T03:02:36.713Z,20.70
2018-11-01T03:05:05.716Z,20.80
2018-11-01T03:07:34.219Z,20.70
2018-11-01T03:10:02.755Z,20.70
2018-11-01T03:12:31.417Z,20.70
2018-11-01T03:14:59.902Z,20.70
2018-11-01T03:17:28.511Z,20.70
2018-11-01T03:19:57.378Z,20.60
2018-11-01T03:22:26.576Z,20.60
2018-11-01T03:24:55.146Z,20.60
2018-11-01T03:27:24.318Z,20.60
2018-11-01T03:29:53.077Z,20.60
2018-11-01T03:32:21.777Z,20.60
2018-11-01T03:34:50.669Z,20.60
2018-11-01T03:37:19.693Z,20.60
2018-11-01T03:39:48.635Z,20.60
2018-11-01T03:42:17.429Z,20.50
2018-11-01T03:44:46.172Z,20.50
2018-11-01T03:47:15.049Z,20.50
2018-11-01T03:49:44.217Z,20.50
2018-11-01T03:52:13.578Z,20.50
2018-11-01T03:54:42.208Z,20.40
2018-11-01T03:57:10.827Z,20.40
2018-11-01T03:59:39.472Z,20.40
2018-11-01T04:02:08.213Z,20.40
2018-11-01T04:04:37.495Z,20.40
2018-11-01T04:27:14.664Z,20.30
2018-11-01T04:29:43.208Z,20.30
2018-11-01T04:32:12.576Z,21.50
2018-11-01T04:34:41.912Z,20.20
2018-11-01T04:37:10.670Z,20.30
2018-11-01T04:39:39.255Z,20.30
2018-11-01T04:42:08.020Z,20.30
2018-11-01T04:44:36.521Z,20.30
2018-11-01T04:47:05.279Z,20.30
2018-11-01T04:49:34.457Z,20.20
2018-11-01T04:52:03.266Z,20.20
2018-11-01T04:54:33.699Z,20.20
2018-11-01T04:57:02.652Z,20.20
2018-11-01T04:59:31.170Z,20.20
2018-11-01T05:02:00.094Z,20.20
2018-11-01T05:04:28.517Z,20.20
2018-11-01T05:06:57.751Z,20.10
2018-11-01T05:09:26.094Z,20.10
2018-11-01T05:11:54.533Z,20.20
2018-11-01T05:14:23.222Z,20.20
2018-11-01T05:16:51.763Z,20.20
2018-11-01T05:19:20.271Z,20.10
2018-11-01T05:21:49.501Z,20.10
2018-11-01T05:24:18.525Z,20.10
2018-11-01T05:26:47.098Z,20.10
2018-11-01T05:29:15.759Z,20.10
2018-11-01T05:31:44.301Z,20.10
2018-11-01T05:34:12.753Z,20.10
2018-11-01T05:36:41.314Z,20.10
2018-11-01T05:39:11.332Z,20.00
2018-11-01T05:41:39.981Z,20.00
2018-11-01T05:44:08.442Z,20.00
2018-11-01T05:46:37.090Z,20.00
2018-11-01T05:49:06.072Z,20.00
2018-11-01T05:51:34.510Z,20.00
2018-11-01T05:54:03.001Z,20.00
2018-11-01T05:56:31.431Z,20.00
2018-11-01T05:59:00.000Z,20.00
2018-11-01T06:01:34.008Z,19.90
2018-11-01T06:04:03.063Z,19.90
2018-11-01T06:06:31.800Z,20.00
2018-11-01T06:09:02.552Z,20.00
2018-11-01T06:11:30.976Z,19.90
2018-11-01T06:13:59.528Z,19.90
2018-11-01T06:16:27.976Z,19.90
2018-11-01T06:18:56.421Z,19.90
2018-11-01T06:21:24.808Z,19.90
2018-11-01T06:23:53.355Z,19.90
2018-11-01T06:26:22.490Z,19.90
2018-11-01T06:28:51.098Z,19.90
2018-11-01T06:31:21.174Z,19.90
2018-11-01T06:33:49.674Z,19.90
2018-11-01T06:36:18.442Z,19.90
2018-11-01T06:38:46.964Z,19.90
2018-11-01T06:41:16.732Z,19.90
2018-11-01T06:43:45.704Z,19.90
2018-11-01T06:46:14.313Z,19.90
2018-11-01T06:48:42.885Z,19.90
2018-11-01T06:51:11.462Z,19.80
2018-11-01T06:53:39.953Z,19.80
2018-11-01T06:56:08.410Z,19.80
2018-11-01T06:58:37.071Z,19.90
2018-11-01T07:01:06.214Z,19.90
2018-11-01T07:03:35.069Z,20.00
2018-11-01T07:06:03.540Z,20.00
2018-11-01T07:08:32.821Z,20.00
2018-11-01T07:11:01.326Z,20.00
2018-11-01T07:13:29.962Z,20.00
2018-11-01T07:15:58.463Z,20.00
2018-11-01T07:18:27.060Z,20.00
2018-11-01T07:20:55.500Z,20.00
2018-11-01T07:23:24.023Z,20.00
2018-11-01T07:25:52.591Z,19.90
2018-11-01T07:28:21.251Z,20.00
2018-11-01T07:30:49.823Z,20.00
2018-11-01T07:33:18.418Z,20.00
2018-11-01T07:35:46.941Z,20.10
2018-11-01T07:38:15.340Z,20.10
2018-11-01T07:40:44.036Z,20.20
2018-11-01T07:43:12.501Z,20.30
2018-11-01T07:45:41.216Z,20.40
2018-11-01T07:48:09.623Z,20.50
2018-11-01T07:50:38.196Z,20.70
2018-11-01T07:53:06.596Z,20.70
2018-11-01T07:55:35.668Z,20.80
2018-11-01T07:58:04.129Z,20.80
2018-11-01T08:00:32.556Z,20.90
2018-11-01T08:03:00.948Z,20.80
2018-11-01T08:05:29.367Z,20.90
2018-11-01T08:07:57.828Z,20.90
2018-11-01T08:10:26.351Z,21.00
2018-11-01T08:12:54.784Z,21.10
2018-11-01T08:15:23.254Z,21.20
2018-11-01T08:17:51.654Z,21.30
2018-11-01T08:20:20.212Z,21.40
2018-11-01T08:22:48.504Z,21.50
2018-11-01T08:25:17.029Z,21.60
2018-11-01T08:27:45.805Z,21.60
2018-11-01T08:30:15.517Z,21.70
2018-11-01T08:32:43.920Z,21.80
2018-11-01T08:35:12.803Z,21.80
2018-11-01T08:37:42.728Z,21.90
2018-11-01T08:40:11.960Z,21.90
2018-11-01T08:42:41.230Z,21.90
2018-11-01T08:45:11.133Z,21.90
2018-11-01T08:47:39.862Z,21.90
2018-11-01T08:50:09.614Z,21.90
2018-11-01T08:52:38.396Z,21.90
2018-11-01T08:55:07.425Z,21.90
2018-11-01T08:57:35.804Z,22.00
2018-11-01T09:00:04.437Z,22.10
2018-11-01T09:02:32.900Z,22.10
2018-11-01T09:05:01.287Z,22.20
2018-11-01T09:07:29.837Z,22.30
2018-11-01T09:09:58.286Z,22.30
2018-11-01T09:12:26.696Z,22.40
2018-11-01T09:14:57.962Z,22.50
2018-11-01T09:17:26.385Z,22.50
2018-11-01T09:19:55.369Z,22.60
2018-11-01T09:22:23.770Z,22.70
2018-11-01T09:24:52.276Z,22.70
2018-11-01T09:27:20.812Z,22.80
2018-11-01T09:29:49.268Z,22.90
2018-11-01T09:32:17.816Z,22.80
2018-11-01T09:34:46.279Z,22.90
2018-11-01T09:37:14.703Z,22.90
2018-11-01T09:39:43.869Z,22.80
2018-11-01T09:42:12.332Z,22.80
2018-11-01T09:44:40.762Z,22.80
2018-11-01T09:47:09.592Z,22.70
2018-11-01T09:49:37.752Z,22.60
2018-11-01T09:52:06.947Z,22.60
2018-11-01T09:54:35.380Z,22.60
2018-11-01T09:57:03.808Z,22.60
2018-11-01T09:59:32.287Z,22.50
2018-11-01T10:02:00.727Z,22.50
2018-11-01T10:04:29.327Z,22.50
2018-11-01T10:06:57.776Z,22.50
2018-11-01T10:09:26.296Z,22.50
2018-11-01T10:11:54.715Z,22.40
2018-11-01T10:14:23.251Z,22.40
2018-11-01T10:16:52.399Z,22.40
2018-11-01T10:19:20.601Z,22.40
2018-11-01T10:21:49.168Z,22.30
2018-11-01T10:24:17.560Z,22.20
2018-11-01T10:26:45.982Z,22.30
2018-11-01T10:29:14.401Z,22.20
2018-11-01T10:31:42.823Z,22.20
2018-11-01T10:34:12.049Z,22.20
2018-11-01T10:36:40.484Z,22.10
2018-11-01T10:39:09.914Z,22.10
2018-11-01T10:41:38.359Z,22.10
2018-11-01T10:44:06.767Z,22.00
2018-11-01T10:46:35.293Z,22.00
2018-11-01T10:49:03.901Z,22.00
2018-11-01T10:51:32.590Z,21.90
2018-11-01T10:54:01.028Z,21.90
2018-11-01T10:56:29.570Z,21.90
2018-11-01T10:58:58.129Z,21.90
2018-11-01T11:01:31.812Z,21.80
2018-11-01T11:04:00.265Z,21.80
2018-11-01T11:06:29.229Z,21.80
2018-11-01T11:08:57.977Z,21.70
2018-11-01T11:11:26.434Z,21.70
2018-11-01T11:13:54.898Z,21.70
2018-11-01T11:16:23.437Z,21.60
2018-11-01T11:18:52.052Z,21.60
2018-11-01T11:21:20.556Z,21.60
2018-11-01T11:23:49.180Z,21.60
2018-11-01T11:26:18.181Z,21.60
2018-11-01T11:28:46.637Z,21.50
2018-11-01T11:31:15.094Z,21.50
2018-11-01T11:33:43.543Z,21.50
2018-11-01T11:36:11.951Z,21.50
2018-11-01T11:38:40.459Z,21.50
2018-11-01T11:41:08.959Z,21.50
2018-11-01T11:43:37.414Z,21.50
2018-11-01T11:46:05.872Z,21.50
2018-11-01T11:48:34.324Z,21.50
2018-11-01T11:51:02.713Z,21.50
2018-11-01T11:53:31.207Z,21.50
2018-11-01T11:55:59.618Z,21.50
2018-11-01T11:58:28.157Z,21.50
2018-11-01T12:00:56.531Z,21.50
2018-11-01T12:03:25.046Z,21.50
2018-11-01T12:05:53.652Z,21.50
2018-11-01T12:08:22.042Z,21.50
2018-11-01T12:10:50.490Z,21.50
2018-11-01T12:13:18.921Z,21.50
2018-11-01T12:15:47.512Z,21.40
2018-11-01T12:18:16.390Z,21.50
2018-11-01T12:20:44.816Z,21.40
2018-11-01T12:23:13.228Z,21.40
2018-11-01T12:25:41.760Z,21.40
2018-11-01T12:28:10.239Z,21.40
2018-11-01T12:30:38.623Z,21.40
2018-11-01T12:33:07.193Z,21.40
2018-11-01T12:35:35.755Z,21.30
2018-11-01T12:38:04.597Z,21.40
2018-11-01T12:40:33.845Z,21.30
2018-11-01T12:43:02.266Z,21.30
2018-11-01T12:45:31.031Z,21.30
2018-11-01T12:47:59.652Z,21.30
2018-11-01T12:50:28.102Z,21.30
2018-11-01T12:52:56.603Z,21.30
2018-11-01T12:55:24.989Z,21.30
2018-11-01T12:57:53.504Z,21.30
2018-11-01T13:00:22.049Z,21.30
2018-11-01T13:02:50.997Z,21.30
2018-11-01T13:05:19.534Z,21.30
2018-11-01T13:07:52.312Z,21.20
2018-11-01T13:10:21.552Z,21.20
2018-11-01T13:12:50.109Z,21.20
2018-11-01T13:15:18.545Z,21.20
2018-11-01T13:17:47.101Z,21.20
2018-11-01T13:20:15.480Z,21.20
2018-11-01T13:22:44.195Z,21.20
2018-11-01T13:25:13.072Z,21.20
2018-11-01T13:27:41.669Z,21.20
2018-11-01T13:30:12.428Z,21.10
2018-11-01T13:32:41.849Z,21.10
2018-11-01T13:35:10.301Z,21.10
2018-11-01T13:37:38.749Z,21.10
2018-11-01T13:40:08.087Z,21.10
2018-11-01T13:42:36.144Z,21.10
2018-11-01T13:45:05.224Z,21.10
2018-11-01T13:47:34.434Z,21.10
2018-11-01T13:50:02.748Z,21.10
2018-11-01T13:52:31.265Z,21.00
2018-11-01T13:54:59.724Z,21.10
2018-11-01T13:57:28.178Z,21.10
2018-11-01T13:59:56.668Z,21.00
2018-11-01T14:02:25.457Z,21.00
2018-11-01T14:04:58.312Z,21.00
2018-11-01T14:07:26.972Z,21.00
2018-11-01T14:09:55.425Z,21.00
2018-11-01T14:12:23.880Z,21.00
2018-11-01T14:14:52.622Z,21.00
2018-11-01T14:17:20.745Z,21.00
2018-11-01T14:19:53.623Z,21.00
2018-11-01T14:22:27.007Z,21.00
2018-11-01T14:24:56.381Z,21.00
2018-11-01T14:27:24.919Z,20.90
2018-11-01T14:29:53.527Z,20.90
2018-11-01T14:32:21.934Z,20.90
2018-11-01T14:34:50.415Z,20.90
2018-11-01T14:37:18.865Z,20.90
2018-11-01T14:39:47.519Z,20.90
2018-11-01T14:42:15.978Z,20.90
2018-11-01T14:44:44.480Z,20.90
2018-11-01T14:47:13.002Z,20.80
2018-11-01T14:49:41.473Z,20.80
2018-11-01T14:52:10.269Z,20.80
2018-11-01T14:54:39.637Z,20.80
2018-11-01T14:57:07.839Z,20.80
2018-11-01T14:59:36.695Z,20.80
2018-11-01T15:02:03.893Z,20.80
2018-11-01T15:04:32.356Z,20.80
2018-11-01T15:07:00.846Z,20.80
2018-11-01T15:09:29.359Z,20.80
2018-11-01T15:11:58.066Z,20.80
2018-11-01T15:14:26.456Z,20.70
2018-11-01T15:16:54.923Z,20.80
2018-11-01T15:19:23.622Z,20.70
2018-11-01T15:21:51.903Z,20.70
2018-11-01T15:24:20.368Z,20.70
2018-11-01T15:26:48.733Z,20.70
2018-11-01T15:29:17.179Z,20.70
2018-11-01T15:31:45.871Z,20.70
2018-11-01T15:34:14.727Z,21.10
2018-11-01T15:36:43.258Z,20.70
2018-11-01T15:39:12.636Z,20.70
2018-11-01T15:41:41.782Z,20.70
2018-11-01T15:44:11.484Z,20.60
2018-11-01T15:46:40.461Z,20.70
2018-11-01T15:49:09.032Z,20.60
2018-11-01T15:51:37.536Z,20.60
2018-11-01T15:54:06.093Z,20.60
2018-11-01T15:56:35.099Z,20.60
2018-11-01T15:59:03.545Z,20.60
2018-11-01T16:01:31.969Z,20.60
2018-11-01T16:04:00.575Z,20.60
2018-11-01T16:06:29.006Z,20.60
2018-11-01T16:09:05.239Z,20.60
2018-11-01T16:11:34.333Z,20.60
2018-11-01T16:14:02.817Z,20.60
2018-11-01T16:16:32.266Z,20.60
2018-11-01T16:19:00.845Z,20.50
2018-11-01T16:21:29.420Z,20.60
2018-11-01T16:23:57.923Z,20.50
2018-11-01T16:26:26.429Z,20.50
2018-11-01T16:28:55.058Z,20.50
2018-11-01T16:31:23.519Z,20.50
2018-11-01T16:33:52.232Z,20.50
2018-11-01T16:36:23.489Z,20.50
2018-11-01T16:38:52.123Z,20.50
2018-11-01T16:41:20.800Z,20.50
2018-11-01T16:43:54.727Z,20.50
2018-11-01T16:46:23.449Z,20.50
2018-11-01T16:48:55.117Z,20.50
2018-11-01T16:51:23.674Z,20.40
2018-11-01T16:53:52.375Z,20.40
2018-11-01T16:56:21.348Z,20.40
2018-11-01T16:58:49.745Z,20.40
2018-11-01T17:01:18.822Z,20.40
2018-11-01T17:03:47.283Z,20.40
2018-11-01T17:06:16.265Z,20.40
2018-11-01T17:08:45.945Z,20.40
2018-11-01T17:11:14.808Z,20.40
2018-11-01T17:13:44.019Z,20.40
2018-11-01T17:16:12.448Z,20.40
2018-11-01T17:18:41.425Z,20.40
2018-11-01T17:21:10.045Z,20.30
2018-11-01T17:23:38.529Z,20.30
2018-11-01T17:26:07.322Z,20.30
2018-11-01T17:28:35.716Z,20.30
2018-11-01T17:31:04.500Z,20.30
2018-11-01T17:33:33.074Z,20.30
2018-11-01T17:36:01.848Z,20.30
2018-11-01T17:38:30.297Z,20.30
2018-11-01T17:40:58.838Z,20.30
2018-11-01T17:43:28.016Z,20.30
2018-11-01T17:45:56.521Z,20.30
2018-11-01T17:48:24.894Z,20.30
2018-11-01T17:50:54.094Z,20.30
2018-11-01T17:53:22.655Z,20.30
2018-11-01T17:55:55.464Z,20.30
2018-11-01T17:58:35.747Z,20.30
2018-11-01T18:01:24.191Z,20.30
2018-11-01T18:04:13.144Z,20.20
2018-11-01T18:06:49.043Z,20.20
2018-11-01T18:09:26.103Z,20.30
2018-11-01T18:12:02.848Z,20.30
2018-11-01T18:14:31.775Z,20.20
2018-11-01T18:17:00.311Z,20.20
2018-11-01T18:19:28.717Z,20.20
2018-11-01T18:21:57.304Z,20.20
2018-11-01T18:24:26.204Z,20.20
2018-11-01T18:26:54.902Z,20.20
2018-11-01T18:29:23.518Z,20.20
2018-11-01T18:31:52.353Z,20.30
2018-11-01T18:34:20.990Z,20.30
2018-11-01T18:36:49.494Z,20.30
2018-11-01T18:39:18.171Z,20.40
2018-11-01T18:41:46.543Z,20.40
2018-11-01T18:44:15.090Z,20.40
2018-11-01T18:46:44.138Z,20.40
2018-11-01T18:49:13.367Z,20.40
2018-11-01T18:51:41.808Z,20.50
2018-11-01T18:54:11.317Z,20.70
2018-11-01T18:56:39.751Z,20.90
2018-11-01T18:59:08.289Z,21.10
2018-11-01T19:01:36.950Z,21.30
2018-11-01T19:04:05.582Z,21.40
2018-11-01T19:06:34.116Z,21.70
2018-11-01T19:09:02.687Z,22.00
2018-11-01T19:11:31.285Z,22.40
2018-11-01T19:13:59.976Z,22.70
2018-11-01T19:16:28.206Z,22.90
2018-11-01T19:18:56.788Z,22.90
2018-11-01T19:21:25.399Z,22.90
2018-11-01T19:23:54.405Z,22.70
2018-11-01T19:26:23.182Z,22.70
2018-11-01T19:28:51.734Z,22.60
2018-11-01T19:31:20.586Z,22.60
2018-11-01T19:33:49.435Z,22.60
2018-11-01T19:36:17.965Z,22.60
2018-11-01T19:38:47.323Z,22.50
2018-11-01T19:41:15.984Z,22.50
2018-11-01T19:43:44.785Z,22.50
2018-11-01T19:46:13.915Z,22.50
2018-11-01T19:48:42.961Z,22.60
2018-11-01T19:51:11.798Z,22.60
2018-11-01T19:53:41.871Z,22.70
2018-11-01T19:56:10.779Z,22.70
2018-11-01T19:58:42.030Z,22.80
2018-11-01T20:01:10.846Z,22.80
2018-11-01T20:03:40.856Z,22.80
2018-11-01T20:06:19.256Z,22.80
2018-11-01T20:08:51.453Z,22.80
2018-11-01T20:11:20.150Z,22.70
2018-11-01T20:13:49.628Z,22.70
2018-11-01T20:16:18.094Z,22.70
2018-11-01T20:18:53.966Z,22.60
2018-11-01T20:21:23.108Z,22.50
2018-11-01T20:23:57.084Z,22.40
2018-11-01T20:26:27.428Z,22.30
2018-11-01T20:28:58.256Z,22.30
2018-11-01T20:31:27.208Z,22.20
2018-11-01T20:33:58.298Z,22.10
2018-11-01T20:36:36.360Z,22.10
2018-11-01T20:39:09.231Z,22.10
2018-11-01T20:41:41.431Z,22.00
2018-11-01T20:44:23.245Z,22.00
2018-11-01T20:46:54.143Z,22.00
2018-11-01T20:49:25.542Z,22.00
2018-11-01T20:51:59.667Z,22.00
2018-11-01T20:54:35.262Z,22.00
2018-11-01T20:57:08.242Z,22.10
2018-11-01T20:59:39.113Z,22.00
2018-11-01T21:02:09.281Z,22.00
2018-11-01T21:04:41.730Z,22.00
2018-11-01T21:07:11.080Z,22.10
2018-11-01T21:09:41.432Z,22.10
2018-11-01T21:12:15.767Z,22.10
2018-11-01T21:14:50.357Z,22.10
2018-11-01T21:17:20.918Z,22.20
2018-11-01T21:19:56.766Z,22.20
2018-11-01T21:22:26.792Z,22.20
2018-11-01T21:24:57.936Z,22.20
2018-11-01T21:27:27.500Z,22.30
2018-11-01T21:29:56.651Z,22.30
2018-11-01T21:32:25.376Z,22.20
2018-11-01T21:34:54.808Z,22.10
2018-11-01T21:37:23.535Z,22.10
2018-11-01T21:39:52.103Z,22.00
2018-11-01T21:42:20.598Z,21.90
2018-11-01T21:44:49.268Z,21.90
2018-11-01T21:47:17.865Z,21.90
2018-11-01T21:49:46.432Z,21.90
2018-11-01T21:52:14.969Z,21.90
2018-11-01T21:54:43.597Z,22.00
2018-11-01T21:57:12.120Z,22.00
2018-11-01T21:59:41.098Z,22.10
2018-11-01T22:02:09.786Z,22.10
2018-11-01T22:04:38.309Z,22.30
2018-11-01T22:07:06.851Z,22.30
2018-11-01T22:09:35.682Z,22.30
2018-11-01T22:12:04.661Z,22.30
2018-11-01T22:14:33.172Z,22.30
2018-11-01T22:17:02.299Z,22.30
2018-11-01T22:19:30.882Z,22.30
2018-11-01T22:21:59.525Z,22.20
2018-11-01T22:24:28.185Z,22.20
2018-11-01T22:26:56.832Z,22.10
2018-11-01T22:29:25.550Z,22.10
2018-11-01T22:31:54.497Z,22.10
2018-11-01T22:34:23.436Z,22.00
2018-11-01T22:36:52.291Z,22.00
2018-11-01T22:39:21.093Z,22.10
2018-11-01T22:41:50.823Z,22.10
2018-11-01T22:44:19.936Z,22.10
2018-11-01T22:46:48.403Z,22.10
2018-11-01T22:49:17.545Z,22.10
2018-11-01T22:51:47.239Z,22.00
2018-11-01T22:54:24.938Z,22.00
2018-11-01T22:56:54.527Z,22.00
2018-11-01T22:59:27.692Z,22.10
2018-11-01T23:01:56.694Z,22.10
2018-11-01T23:04:25.167Z,22.10
2018-11-01T23:06:55.132Z,22.10
2018-11-01T23:09:24.468Z,22.10
2018-11-01T23:11:53.072Z,22.00
2018-11-01T23:14:21.789Z,22.00
2018-11-01T23:16:50.476Z,22.00
2018-11-01T23:19:19.164Z,22.00
2018-11-01T23:21:48.094Z,22.00
2018-11-01T23:24:16.596Z,22.00
2018-11-01T23:26:45.299Z,22.00
2018-11-01T23:29:14.004Z,22.00
2018-11-01T23:31:42.647Z,22.00
2018-11-01T23:34:11.268Z,22.00
2018-11-01T23:36:45.501Z,22.00
2018-11-01T23:39:19.717Z,22.00
2018-11-01T23:41:53.859Z,21.90
2018-11-01T23:44:28.025Z,21.90
2018-11-01T23:47:02.014Z,21.90
2018-11-01T23:49:39.980Z,21.90
2018-11-01T23:52:14.271Z,21.90
2018-11-01T23:54:43.125Z,21.90
2018-11-01T23:57:11.617Z,21.90
2018-11-01T23:59:40.109Z,21.90
